sensor_id;sensor_type;location;lat;lon;timestamp;temperature;humidity
16404;DHT22;8311;50.158;8.642;2023-10-13T00:02:51;21.30;64.90
16404;DHT22;8311;50.158;8.642;2023-10-13T00:05:44;21.40;65.00
16404;DHT22;8311;50.158;8.642;2023-10-13T00:08:37;21.30;64.90
16404;DHT22;8311;50.158;8.642;2023-10-13T00:11:31;21.40;65.00
16404;DHT22;8311;50.158;8.642;2023-10-13T00:14:24;21.40;65.00
16404;DHT22;8311;50.158;8.642;2023-10-13T00:17:26;21.40;65.00
16404;DHT22;8311;50.158;8.642;2023-10-13T00:20:19;21.30;64.90
16404;DHT22;8311;50.158;8.642;2023-10-13T00:23:26;21.40;65.70
16404;DHT22;8311;50.158;8.642;2023-10-13T00:26:19;21.30;64.90
16404;DHT22;8311;50.158;8.642;2023-10-13T00:29:15;21.30;64.90
16404;DHT22;8311;50.158;8.642;2023-10-13T00:32:08;21.30;64.90
16404;DHT22;8311;50.158;8.642;2023-10-13T00:35:06;21.30;64.90
16404;DHT22;8311;50.158;8.642;2023-10-13T00:38:03;21.30;64.90
16404;DHT22;8311;50.158;8.642;2023-10-13T00:41:04;21.30;64.90
16404;DHT22;8311;50.158;8.642;2023-10-13T00:44:06;21.30;65.00
16404;DHT22;8311;50.158;8.642;2023-10-13T00:47:01;21.30;65.70
16404;DHT22;8311;50.158;8.642;2023-10-13T00:49:54;21.30;65.00
16404;DHT22;8311;50.158;8.642;2023-10-13T00:52:49;21.30;64.90
16404;DHT22;8311;50.158;8.642;2023-10-13T00:55:42;21.30;65.00
16404;DHT22;8311;50.158;8.642;2023-10-13T00:58:37;21.30;65.00
16404;DHT22;8311;50.158;8.642;2023-10-13T01:01:30;21.30;65.00
16404;DHT22;8311;50.158;8.642;2023-10-13T01:04:25;21.30;65.00
16404;DHT22;8311;50.158;8.642;2023-10-13T01:07:20;21.30;65.00
16404;DHT22;8311;50.158;8.642;2023-10-13T01:10:15;21.30;65.00
16404;DHT22;8311;50.158;8.642;2023-10-13T01:13:09;21.30;65.00
16404;DHT22;8311;50.158;8.642;2023-10-13T01:16:03;21.30;65.00
16404;DHT22;8311;50.158;8.642;2023-10-13T01:19:00;21.30;65.00
16404;DHT22;8311;50.158;8.642;2023-10-13T01:21:56;21.30;65.00
16404;DHT22;8311;50.158;8.642;2023-10-13T01:24:58;21.30;65.00
16404;DHT22;8311;50.158;8.642;2023-10-13T01:27:59;21.30;65.00
16404;DHT22;8311;50.158;8.642;2023-10-13T01:30:52;21.30;65.00
16404;DHT22;8311;50.158;8.642;2023-10-13T01:33:45;21.30;65.00
16404;DHT22;8311;50.158;8.642;2023-10-13T01:36:37;21.30;65.00
16404;DHT22;8311;50.158;8.642;2023-10-13T01:39:32;21.30;65.00
16404;DHT22;8311;50.158;8.642;2023-10-13T01:42:27;21.30;65.00
16404;DHT22;8311;50.158;8.642;2023-10-13T01:45:21;21.30;65.00
16404;DHT22;8311;50.158;8.642;2023-10-13T01:48:18;21.30;65.00
16404;DHT22;8311;50.158;8.642;2023-10-13T01:51:13;21.30;65.00
16404;DHT22;8311;50.158;8.642;2023-10-13T01:54:06;21.30;64.90
16404;DHT22;8311;50.158;8.642;2023-10-13T01:57:03;21.30;65.00
16404;DHT22;8311;50.158;8.642;2023-10-13T01:59:58;21.30;65.00
16404;DHT22;8311;50.158;8.642;2023-10-13T02:03:01;21.30;65.00
16404;DHT22;8311;50.158;8.642;2023-10-13T02:05:54;21.30;65.00
16404;DHT22;8311;50.158;8.642;2023-10-13T02:08:50;21.30;65.00
16404;DHT22;8311;50.158;8.642;2023-10-13T02:11:48;21.30;65.00
16404;DHT22;8311;50.158;8.642;2023-10-13T02:14:47;21.30;65.00
16404;DHT22;8311;50.158;8.642;2023-10-13T02:17:42;21.30;65.00
16404;DHT22;8311;50.158;8.642;2023-10-13T02:20:36;21.30;65.00
16404;DHT22;8311;50.158;8.642;2023-10-13T02:23:34;21.30;65.00
16404;DHT22;8311;50.158;8.642;2023-10-13T02:26:35;21.30;65.00
16404;DHT22;8311;50.158;8.642;2023-10-13T02:29:30;21.30;65.00
16404;DHT22;8311;50.158;8.642;2023-10-13T02:32:30;21.30;65.00
16404;DHT22;8311;50.158;8.642;2023-10-13T02:35:24;21.30;65.00
16404;DHT22;8311;50.158;8.642;2023-10-13T02:38:22;21.30;65.00
16404;DHT22;8311;50.158;8.642;2023-10-13T02:41:19;21.30;65.00
16404;DHT22;8311;50.158;8.642;2023-10-13T02:44:18;21.30;65.00
16404;DHT22;8311;50.158;8.642;2023-10-13T02:47:18;21.30;65.00
16404;DHT22;8311;50.158;8.642;2023-10-13T02:50:15;21.30;65.00
16404;DHT22;8311;50.158;8.642;2023-10-13T02:53:11;21.30;65.00
16404;DHT22;8311;50.158;8.642;2023-10-13T02:56:10;21.30;65.00
16404;DHT22;8311;50.158;8.642;2023-10-13T02:59:05;21.30;65.00
16404;DHT22;8311;50.158;8.642;2023-10-13T03:01:59;21.30;65.00
16404;DHT22;8311;50.158;8.642;2023-10-13T03:04:53;21.30;65.00
16404;DHT22;8311;50.158;8.642;2023-10-13T03:07:50;21.30;65.00
16404;DHT22;8311;50.158;8.642;2023-10-13T03:10:44;21.30;65.00
16404;DHT22;8311;50.158;8.642;2023-10-13T03:13:42;21.30;65.00
16404;DHT22;8311;50.158;8.642;2023-10-13T03:16:36;21.30;65.00
16404;DHT22;8311;50.158;8.642;2023-10-13T03:19:29;21.30;65.00
16404;DHT22;8311;50.158;8.642;2023-10-13T03:22:24;21.30;65.00
16404;DHT22;8311;50.158;8.642;2023-10-13T03:25:22;21.30;65.00
16404;DHT22;8311;50.158;8.642;2023-10-13T03:28:22;21.30;65.00
16404;DHT22;8311;50.158;8.642;2023-10-13T03:31:26;21.30;65.00
16404;DHT22;8311;50.158;8.642;2023-10-13T03:34:20;21.30;65.00
16404;DHT22;8311;50.158;8.642;2023-10-13T03:37:15;21.20;64.90
16404;DHT22;8311;50.158;8.642;2023-10-13T03:40:12;21.30;65.00
16404;DHT22;8311;50.158;8.642;2023-10-13T03:43:19;21.30;65.00
16404;DHT22;8311;50.158;8.642;2023-10-13T03:46:15;21.30;65.00
16404;DHT22;8311;50.158;8.642;2023-10-13T03:49:14;21.30;65.00
16404;DHT22;8311;50.158;8.642;2023-10-13T03:52:14;21.20;65.00
16404;DHT22;8311;50.158;8.642;2023-10-13T03:55:13;21.30;65.00
16404;DHT22;8311;50.158;8.642;2023-10-13T03:58:09;21.20;64.90
16404;DHT22;8311;50.158;8.642;2023-10-13T04:01:04;21.20;64.90
16404;DHT22;8311;50.158;8.642;2023-10-13T04:04:00;21.20;65.00
16404;DHT22;8311;50.158;8.642;2023-10-13T04:07:01;21.20;64.90
16404;DHT22;8311;50.158;8.642;2023-10-13T04:10:13;21.30;65.00
16404;DHT22;8311;50.158;8.642;2023-10-13T04:13:26;21.30;65.00
16404;DHT22;8311;50.158;8.642;2023-10-13T04:16:37;21.30;65.00
16404;DHT22;8311;50.158;8.642;2023-10-13T04:19:44;21.20;64.90
16404;DHT22;8311;50.158;8.642;2023-10-13T04:22:51;21.30;65.00
16404;DHT22;8311;50.158;8.642;2023-10-13T04:26:05;21.20;64.90
16404;DHT22;8311;50.158;8.642;2023-10-13T04:29:01;21.20;64.90
16404;DHT22;8311;50.158;8.642;2023-10-13T04:32:02;21.20;64.90
16404;DHT22;8311;50.158;8.642;2023-10-13T04:35:07;21.20;64.90
16404;DHT22;8311;50.158;8.642;2023-10-13T04:38:10;21.20;64.90
16404;DHT22;8311;50.158;8.642;2023-10-13T04:41:11;21.20;64.90
16404;DHT22;8311;50.158;8.642;2023-10-13T04:44:16;21.20;64.90
16404;DHT22;8311;50.158;8.642;2023-10-13T04:47:26;21.20;64.90
16404;DHT22;8311;50.158;8.642;2023-10-13T04:50:23;21.20;64.90
16404;DHT22;8311;50.158;8.642;2023-10-13T04:53:26;21.20;64.90
16404;DHT22;8311;50.158;8.642;2023-10-13T04:56:24;21.20;64.90
16404;DHT22;8311;50.158;8.642;2023-10-13T04:59:34;21.20;64.90
16404;DHT22;8311;50.158;8.642;2023-10-13T05:02:50;21.20;64.90
16404;DHT22;8311;50.158;8.642;2023-10-13T05:06:01;21.20;64.90
16404;DHT22;8311;50.158;8.642;2023-10-13T05:09:23;21.20;65.70
16404;DHT22;8311;50.158;8.642;2023-10-13T05:12:34;21.20;64.90
16404;DHT22;8311;50.158;8.642;2023-10-13T05:15:47;21.20;64.90
16404;DHT22;8311;50.158;8.642;2023-10-13T05:19:12;21.20;64.90
16404;DHT22;8311;50.158;8.642;2023-10-13T05:22:24;21.20;64.80
16404;DHT22;8311;50.158;8.642;2023-10-13T05:25:35;21.20;64.90
16404;DHT22;8311;50.158;8.642;2023-10-13T05:28:45;21.20;64.90
16404;DHT22;8311;50.158;8.642;2023-10-13T05:32:13;21.20;64.90
16404;DHT22;8311;50.158;8.642;2023-10-13T05:35:24;21.20;64.90
16404;DHT22;8311;50.158;8.642;2023-10-13T05:38:35;21.20;64.90
16404;DHT22;8311;50.158;8.642;2023-10-13T05:41:46;21.20;64.90
16404;DHT22;8311;50.158;8.642;2023-10-13T05:44:56;21.20;64.90
16404;DHT22;8311;50.158;8.642;2023-10-13T05:48:10;21.20;64.90
16404;DHT22;8311;50.158;8.642;2023-10-13T05:51:15;21.20;64.90
16404;DHT22;8311;50.158;8.642;2023-10-13T05:54:37;21.20;64.90
16404;DHT22;8311;50.158;8.642;2023-10-13T05:57:47;21.20;64.90
16404;DHT22;8311;50.158;8.642;2023-10-13T06:00:58;21.20;64.80
16404;DHT22;8311;50.158;8.642;2023-10-13T06:04:09;21.20;64.90
16404;DHT22;8311;50.158;8.642;2023-10-13T06:07:21;21.20;64.90
16404;DHT22;8311;50.158;8.642;2023-10-13T06:10:33;21.20;64.80
16404;DHT22;8311;50.158;8.642;2023-10-13T06:13:43;21.20;64.80
16404;DHT22;8311;50.158;8.642;2023-10-13T06:16:54;21.20;64.80
16404;DHT22;8311;50.158;8.642;2023-10-13T06:20:06;21.20;64.80
16404;DHT22;8311;50.158;8.642;2023-10-13T06:23:16;21.20;64.80
16404;DHT22;8311;50.158;8.642;2023-10-13T06:26:28;21.20;64.80
16404;DHT22;8311;50.158;8.642;2023-10-13T06:29:38;21.20;64.80
16404;DHT22;8311;50.158;8.642;2023-10-13T06:32:33;21.20;64.80
16404;DHT22;8311;50.158;8.642;2023-10-13T06:35:26;21.20;64.80
16404;DHT22;8311;50.158;8.642;2023-10-13T06:38:21;21.20;64.80
16404;DHT22;8311;50.158;8.642;2023-10-13T06:41:14;21.20;64.80
16404;DHT22;8311;50.158;8.642;2023-10-13T06:44:16;21.20;64.80
16404;DHT22;8311;50.158;8.642;2023-10-13T06:47:09;21.20;64.80
16404;DHT22;8311;50.158;8.642;2023-10-13T06:50:04;21.20;64.80
16404;DHT22;8311;50.158;8.642;2023-10-13T06:53:07;21.20;64.80
16404;DHT22;8311;50.158;8.642;2023-10-13T06:56:06;21.20;64.70
16404;DHT22;8311;50.158;8.642;2023-10-13T06:59:00;21.20;64.70
16404;DHT22;8311;50.158;8.642;2023-10-13T07:01:58;21.20;64.70
16404;DHT22;8311;50.158;8.642;2023-10-13T07:05:16;21.20;64.70
16404;DHT22;8311;50.158;8.642;2023-10-13T07:08:11;21.20;64.60
16404;DHT22;8311;50.158;8.642;2023-10-13T07:11:05;21.20;64.60
16404;DHT22;8311;50.158;8.642;2023-10-13T07:14:00;21.20;64.60
16404;DHT22;8311;50.158;8.642;2023-10-13T07:17:06;21.20;64.60
16404;DHT22;8311;50.158;8.642;2023-10-13T07:20:01;21.20;64.60
16404;DHT22;8311;50.158;8.642;2023-10-13T07:23:06;21.20;64.50
16404;DHT22;8311;50.158;8.642;2023-10-13T07:26:01;21.20;64.50
16404;DHT22;8311;50.158;8.642;2023-10-13T07:28:55;21.20;64.50
16404;DHT22;8311;50.158;8.642;2023-10-13T07:31:48;21.20;64.40
16404;DHT22;8311;50.158;8.642;2023-10-13T07:34:44;21.20;64.50
16404;DHT22;8311;50.158;8.642;2023-10-13T07:37:40;21.20;64.40
16404;DHT22;8311;50.158;8.642;2023-10-13T07:40:34;21.20;64.40
16404;DHT22;8311;50.158;8.642;2023-10-13T07:43:32;21.20;64.40
16404;DHT22;8311;50.158;8.642;2023-10-13T07:46:25;21.20;64.40
16404;DHT22;8311;50.158;8.642;2023-10-13T07:49:25;21.30;64.40
16404;DHT22;8311;50.158;8.642;2023-10-13T07:52:24;21.20;64.30
16404;DHT22;8311;50.158;8.642;2023-10-13T07:55:23;21.30;64.20
16404;DHT22;8311;50.158;8.642;2023-10-13T07:58:17;21.30;64.20
16404;DHT22;8311;50.158;8.642;2023-10-13T08:01:09;21.30;64.20
16404;DHT22;8311;50.158;8.642;2023-10-13T08:04:09;21.30;64.20
16404;DHT22;8311;50.158;8.642;2023-10-13T08:07:04;21.30;64.20
16404;DHT22;8311;50.158;8.642;2023-10-13T08:10:07;21.30;64.20
16404;DHT22;8311;50.158;8.642;2023-10-13T08:13:02;21.30;64.20
16404;DHT22;8311;50.158;8.642;2023-10-13T08:16:04;21.30;64.20
16404;DHT22;8311;50.158;8.642;2023-10-13T08:19:01;21.40;64.30
16404;DHT22;8311;50.158;8.642;2023-10-13T08:21:59;21.40;64.30
16404;DHT22;8311;50.158;8.642;2023-10-13T08:25:14;21.40;64.50
16404;DHT22;8311;50.158;8.642;2023-10-13T08:28:26;21.50;64.60
16404;DHT22;8311;50.158;8.642;2023-10-13T08:31:50;21.50;65.30
16404;DHT22;8311;50.158;8.642;2023-10-13T08:35:06;21.50;64.50
16404;DHT22;8311;50.158;8.642;2023-10-13T08:38:15;21.60;64.60
16404;DHT22;8311;50.158;8.642;2023-10-13T08:41:23;21.60;64.50
16404;DHT22;8311;50.158;8.642;2023-10-13T08:44:27;21.70;64.40
16404;DHT22;8311;50.158;8.642;2023-10-13T08:47:37;21.70;64.20
16404;DHT22;8311;50.158;8.642;2023-10-13T08:50:33;21.70;64.10
16404;DHT22;8311;50.158;8.642;2023-10-13T08:53:41;21.70;64.00
16404;DHT22;8311;50.158;8.642;2023-10-13T08:56:46;21.70;64.70
16404;DHT22;8311;50.158;8.642;2023-10-13T08:59:40;21.70;64.00
16404;DHT22;8311;50.158;8.642;2023-10-13T09:02:44;21.70;63.90
16404;DHT22;8311;50.158;8.642;2023-10-13T09:06:00;21.70;64.00
16404;DHT22;8311;50.158;8.642;2023-10-13T09:09:05;21.80;64.20
16404;DHT22;8311;50.158;8.642;2023-10-13T09:12:10;21.80;64.20
16404;DHT22;8311;50.158;8.642;2023-10-13T09:15:04;21.90;64.20
16404;DHT22;8311;50.158;8.642;2023-10-13T09:18:10;22.00;64.60
16404;DHT22;8311;50.158;8.642;2023-10-13T09:21:05;22.00;64.40
16404;DHT22;8311;50.158;8.642;2023-10-13T09:24:20;22.10;64.30
16404;DHT22;8311;50.158;8.642;2023-10-13T09:27:24;22.20;64.30
16404;DHT22;8311;50.158;8.642;2023-10-13T09:30:19;22.30;64.20
16404;DHT22;8311;50.158;8.642;2023-10-13T09:33:13;22.30;63.80
16404;DHT22;8311;50.158;8.642;2023-10-13T09:36:08;22.30;63.50
16404;DHT22;8311;50.158;8.642;2023-10-13T09:39:05;22.40;63.30
16404;DHT22;8311;50.158;8.642;2023-10-13T09:42:05;22.40;63.40
16404;DHT22;8311;50.158;8.642;2023-10-13T09:45:04;22.40;63.60
16404;DHT22;8311;50.158;8.642;2023-10-13T09:48:09;22.40;63.40
16404;DHT22;8311;50.158;8.642;2023-10-13T09:51:13;22.40;63.30
16404;DHT22;8311;50.158;8.642;2023-10-13T09:54:19;22.40;63.90
16404;DHT22;8311;50.158;8.642;2023-10-13T09:57:29;22.60;64.40
16404;DHT22;8311;50.158;8.642;2023-10-13T10:00:32;22.70;64.50
16404;DHT22;8311;50.158;8.642;2023-10-13T10:03:45;22.80;64.20
16404;DHT22;8311;50.158;8.642;2023-10-13T10:06:51;23.00;64.00
16404;DHT22;8311;50.158;8.642;2023-10-13T10:09:44;23.10;63.30
16404;DHT22;8311;50.158;8.642;2023-10-13T10:12:41;23.20;63.50
16404;DHT22;8311;50.158;8.642;2023-10-13T10:15:41;23.30;63.20
16404;DHT22;8311;50.158;8.642;2023-10-13T10:18:37;23.30;62.80
16404;DHT22;8311;50.158;8.642;2023-10-13T10:21:34;23.30;62.50
16404;DHT22;8311;50.158;8.642;2023-10-13T10:24:28;23.30;62.40
16404;DHT22;8311;50.158;8.642;2023-10-13T10:27:24;23.30;62.50
16404;DHT22;8311;50.158;8.642;2023-10-13T10:30:24;23.30;62.50
16404;DHT22;8311;50.158;8.642;2023-10-13T10:33:29;23.30;62.40
16404;DHT22;8311;50.158;8.642;2023-10-13T10:36:29;23.30;62.50
16404;DHT22;8311;50.158;8.642;2023-10-13T10:39:33;23.30;62.80
16404;DHT22;8311;50.158;8.642;2023-10-13T10:42:34;23.40;62.90
16404;DHT22;8311;50.158;8.642;2023-10-13T10:45:32;23.60;62.90
16404;DHT22;8311;50.158;8.642;2023-10-13T10:48:27;23.70;62.30
16404;DHT22;8311;50.158;8.642;2023-10-13T10:51:31;23.80;62.10
16404;DHT22;8311;50.158;8.642;2023-10-13T10:54:25;23.90;61.80
16404;DHT22;8311;50.158;8.642;2023-10-13T10:57:23;23.90;61.60
16404;DHT22;8311;50.158;8.642;2023-10-13T11:00:25;23.90;61.60
16404;DHT22;8311;50.158;8.642;2023-10-13T11:03:31;23.90;61.50
16404;DHT22;8311;50.158;8.642;2023-10-13T11:06:29;23.90;61.70
16404;DHT22;8311;50.158;8.642;2023-10-13T11:09:30;24.00;61.70
16404;DHT22;8311;50.158;8.642;2023-10-13T11:12:30;24.00;61.40
16404;DHT22;8311;50.158;8.642;2023-10-13T11:15:26;24.00;61.20
16404;DHT22;8311;50.158;8.642;2023-10-13T11:18:31;24.00;61.30
16404;DHT22;8311;50.158;8.642;2023-10-13T11:21:30;24.00;61.40
16404;DHT22;8311;50.158;8.642;2023-10-13T11:24:23;24.10;61.40
16404;DHT22;8311;50.158;8.642;2023-10-13T11:27:17;24.10;61.40
16404;DHT22;8311;50.158;8.642;2023-10-13T11:30:13;24.20;61.40
16404;DHT22;8311;50.158;8.642;2023-10-13T11:33:11;24.30;61.30
16404;DHT22;8311;50.158;8.642;2023-10-13T11:36:11;24.40;60.90
16404;DHT22;8311;50.158;8.642;2023-10-13T11:39:09;24.40;60.70
16404;DHT22;8311;50.158;8.642;2023-10-13T11:42:09;24.40;60.50
16404;DHT22;8311;50.158;8.642;2023-10-13T11:45:03;24.30;60.60
16404;DHT22;8311;50.158;8.642;2023-10-13T11:48:21;24.20;60.60
16404;DHT22;8311;50.158;8.642;2023-10-13T11:51:27;24.10;60.80
16404;DHT22;8311;50.158;8.642;2023-10-13T11:54:24;24.10;60.90
16404;DHT22;8311;50.158;8.642;2023-10-13T11:57:19;24.10;61.00
16404;DHT22;8311;50.158;8.642;2023-10-13T12:00:14;24.10;61.10
16404;DHT22;8311;50.158;8.642;2023-10-13T12:03:36;24.00;61.10
16404;DHT22;8311;50.158;8.642;2023-10-13T12:06:50;24.00;61.20
16404;DHT22;8311;50.158;8.642;2023-10-13T12:09:55;24.10;61.50
16404;DHT22;8311;50.158;8.642;2023-10-13T12:13:00;24.10;61.40
16404;DHT22;8311;50.158;8.642;2023-10-13T12:15:58;24.20;61.30
16404;DHT22;8311;50.158;8.642;2023-10-13T12:19:00;24.20;61.10
16404;DHT22;8311;50.158;8.642;2023-10-13T12:21:55;24.20;60.90
16404;DHT22;8311;50.158;8.642;2023-10-13T12:24:48;24.20;60.80
16404;DHT22;8311;50.158;8.642;2023-10-13T12:27:45;24.20;60.80
16404;DHT22;8311;50.158;8.642;2023-10-13T12:30:41;24.10;60.90
16404;DHT22;8311;50.158;8.642;2023-10-13T12:33:42;24.00;61.10
16404;DHT22;8311;50.158;8.642;2023-10-13T12:36:39;23.90;61.30
16404;DHT22;8311;50.158;8.642;2023-10-13T12:39:35;23.80;61.40
16404;DHT22;8311;50.158;8.642;2023-10-13T12:42:47;23.80;61.60
16404;DHT22;8311;50.158;8.642;2023-10-13T12:45:58;23.70;62.50
16404;DHT22;8311;50.158;8.642;2023-10-13T12:49:09;23.70;61.90
16404;DHT22;8311;50.158;8.642;2023-10-13T12:52:20;23.60;62.10
16404;DHT22;8311;50.158;8.642;2023-10-13T12:55:19;23.60;62.20
16404;DHT22;8311;50.158;8.642;2023-10-13T12:58:17;23.50;62.30
16404;DHT22;8311;50.158;8.642;2023-10-13T13:01:19;23.50;62.30
16404;DHT22;8311;50.158;8.642;2023-10-13T13:04:13;23.50;62.40
16404;DHT22;8311;50.158;8.642;2023-10-13T13:07:12;23.40;62.50
16404;DHT22;8311;50.158;8.642;2023-10-13T13:10:07;23.40;62.60
16404;DHT22;8311;50.158;8.642;2023-10-13T13:13:02;23.40;62.60
16404;DHT22;8311;50.158;8.642;2023-10-13T13:15:56;23.40;62.70
16404;DHT22;8311;50.158;8.642;2023-10-13T13:18:50;23.30;62.60
16404;DHT22;8311;50.158;8.642;2023-10-13T13:21:43;23.30;62.70
16404;DHT22;8311;50.158;8.642;2023-10-13T13:24:38;23.30;62.70
16404;DHT22;8311;50.158;8.642;2023-10-13T13:27:35;23.30;62.80
16404;DHT22;8311;50.158;8.642;2023-10-13T13:30:30;23.30;62.80
16404;DHT22;8311;50.158;8.642;2023-10-13T13:33:25;23.30;62.80
16404;DHT22;8311;50.158;8.642;2023-10-13T13:36:19;23.30;62.80
16404;DHT22;8311;50.158;8.642;2023-10-13T13:39:14;23.20;62.80
16404;DHT22;8311;50.158;8.642;2023-10-13T13:42:10;23.20;62.90
16404;DHT22;8311;50.158;8.642;2023-10-13T13:45:12;23.20;62.90
16404;DHT22;8311;50.158;8.642;2023-10-13T13:48:14;23.20;63.70
16404;DHT22;8311;50.158;8.642;2023-10-13T13:51:09;23.20;63.00
16404;DHT22;8311;50.158;8.642;2023-10-13T13:54:07;23.20;63.00
16404;DHT22;8311;50.158;8.642;2023-10-13T13:57:00;23.20;63.00
16404;DHT22;8311;50.158;8.642;2023-10-13T13:59:54;23.20;63.10
16404;DHT22;8311;50.158;8.642;2023-10-13T14:02:50;23.10;63.10
16404;DHT22;8311;50.158;8.642;2023-10-13T14:05:45;23.10;63.10
16404;DHT22;8311;50.158;8.642;2023-10-13T14:08:38;23.10;63.20
16404;DHT22;8311;50.158;8.642;2023-10-13T14:11:33;23.10;63.20
16404;DHT22;8311;50.158;8.642;2023-10-13T14:14:44;23.10;63.30
16404;DHT22;8311;50.158;8.642;2023-10-13T14:17:42;23.00;63.30
16404;DHT22;8311;50.158;8.642;2023-10-13T14:20:36;23.00;63.30
16404;DHT22;8311;50.158;8.642;2023-10-13T14:23:33;23.00;63.40
16404;DHT22;8311;50.158;8.642;2023-10-13T14:26:28;23.00;63.40
16404;DHT22;8311;50.158;8.642;2023-10-13T14:29:23;23.00;63.40
16404;DHT22;8311;50.158;8.642;2023-10-13T14:32:20;23.00;63.40
16404;DHT22;8311;50.158;8.642;2023-10-13T14:35:17;23.00;63.50
16404;DHT22;8311;50.158;8.642;2023-10-13T14:38:10;22.90;63.50
16404;DHT22;8311;50.158;8.642;2023-10-13T14:41:04;22.90;63.50
16404;DHT22;8311;50.158;8.642;2023-10-13T14:43:58;22.90;64.30
16404;DHT22;8311;50.158;8.642;2023-10-13T14:46:57;22.90;63.60
16404;DHT22;8311;50.158;8.642;2023-10-13T14:49:51;22.90;63.60
16404;DHT22;8311;50.158;8.642;2023-10-13T14:52:47;22.90;63.60
16404;DHT22;8311;50.158;8.642;2023-10-13T14:55:41;22.90;63.60
16404;DHT22;8311;50.158;8.642;2023-10-13T14:58:35;22.80;63.60
16404;DHT22;8311;50.158;8.642;2023-10-13T15:01:34;22.80;63.70
16404;DHT22;8311;50.158;8.642;2023-10-13T15:04:27;22.80;63.70
16404;DHT22;8311;50.158;8.642;2023-10-13T15:07:20;22.80;63.70
16404;DHT22;8311;50.158;8.642;2023-10-13T15:10:14;22.80;63.80
16404;DHT22;8311;50.158;8.642;2023-10-13T15:13:08;22.80;63.70
16404;DHT22;8311;50.158;8.642;2023-10-13T15:16:12;22.80;63.80
16404;DHT22;8311;50.158;8.642;2023-10-13T15:19:06;22.80;63.80
16404;DHT22;8311;50.158;8.642;2023-10-13T15:21:59;22.80;63.80
16404;DHT22;8311;50.158;8.642;2023-10-13T15:24:52;22.80;63.90
16404;DHT22;8311;50.158;8.642;2023-10-13T15:28:00;22.70;63.80
16404;DHT22;8311;50.158;8.642;2023-10-13T15:30:55;22.70;63.80
16404;DHT22;8311;50.158;8.642;2023-10-13T15:34:04;22.70;63.80
16404;DHT22;8311;50.158;8.642;2023-10-13T15:37:04;22.70;63.90
16404;DHT22;8311;50.158;8.642;2023-10-13T15:39:57;22.70;63.90
16404;DHT22;8311;50.158;8.642;2023-10-13T15:42:52;22.70;63.90
16404;DHT22;8311;50.158;8.642;2023-10-13T15:45:51;22.70;63.90
16404;DHT22;8311;50.158;8.642;2023-10-13T15:48:45;22.70;64.00
16404;DHT22;8311;50.158;8.642;2023-10-13T15:51:59;22.70;64.00
16404;DHT22;8311;50.158;8.642;2023-10-13T15:54:53;22.70;64.00
16404;DHT22;8311;50.158;8.642;2023-10-13T15:57:48;22.70;64.00
16404;DHT22;8311;50.158;8.642;2023-10-13T16:00:45;22.60;64.00
16404;DHT22;8311;50.158;8.642;2023-10-13T16:03:40;22.60;64.00
16404;DHT22;8311;50.158;8.642;2023-10-13T16:06:37;22.60;64.00
16404;DHT22;8311;50.158;8.642;2023-10-13T16:09:32;22.60;64.10
16404;DHT22;8311;50.158;8.642;2023-10-13T16:12:27;22.60;64.00
16404;DHT22;8311;50.158;8.642;2023-10-13T16:15:20;22.60;64.00
16404;DHT22;8311;50.158;8.642;2023-10-13T16:18:14;22.60;64.10
16404;DHT22;8311;50.158;8.642;2023-10-13T16:21:13;22.60;64.10
16404;DHT22;8311;50.158;8.642;2023-10-13T16:24:07;22.60;64.10
16404;DHT22;8311;50.158;8.642;2023-10-13T16:27:03;22.60;64.10
16404;DHT22;8311;50.158;8.642;2023-10-13T16:29:58;22.60;64.10
16404;DHT22;8311;50.158;8.642;2023-10-13T16:32:51;22.50;64.10
16404;DHT22;8311;50.158;8.642;2023-10-13T16:35:44;22.60;64.20
16404;DHT22;8311;50.158;8.642;2023-10-13T16:38:38;22.50;64.20
16404;DHT22;8311;50.158;8.642;2023-10-13T16:41:32;22.50;64.20
16404;DHT22;8311;50.158;8.642;2023-10-13T16:44:27;22.50;64.20
16404;DHT22;8311;50.158;8.642;2023-10-13T16:47:21;22.50;64.20
16404;DHT22;8311;50.158;8.642;2023-10-13T16:50:16;22.50;64.20
16404;DHT22;8311;50.158;8.642;2023-10-13T16:53:09;22.50;64.20
16404;DHT22;8311;50.158;8.642;2023-10-13T16:56:02;22.50;64.20
16404;DHT22;8311;50.158;8.642;2023-10-13T16:58:55;22.50;64.30
16404;DHT22;8311;50.158;8.642;2023-10-13T17:01:50;22.40;64.20
16404;DHT22;8311;50.158;8.642;2023-10-13T17:04:43;22.50;64.30
16404;DHT22;8311;50.158;8.642;2023-10-13T17:07:36;22.40;64.30
16404;DHT22;8311;50.158;8.642;2023-10-13T17:10:29;22.40;64.30
16404;DHT22;8311;50.158;8.642;2023-10-13T17:13:23;22.40;64.40
16404;DHT22;8311;50.158;8.642;2023-10-13T17:16:19;22.40;64.40
16404;DHT22;8311;50.158;8.642;2023-10-13T17:19:14;22.40;64.40
16404;DHT22;8311;50.158;8.642;2023-10-13T17:22:08;22.40;64.40
16404;DHT22;8311;50.158;8.642;2023-10-13T17:25:01;22.40;64.40
16404;DHT22;8311;50.158;8.642;2023-10-13T17:27:55;22.40;64.50
16404;DHT22;8311;50.158;8.642;2023-10-13T17:30:48;22.40;64.40
16404;DHT22;8311;50.158;8.642;2023-10-13T17:33:42;22.40;64.50
16404;DHT22;8311;50.158;8.642;2023-10-13T17:36:37;22.40;64.50
16404;DHT22;8311;50.158;8.642;2023-10-13T17:39:31;22.40;64.40
16404;DHT22;8311;50.158;8.642;2023-10-13T17:42:25;22.40;65.20
16404;DHT22;8311;50.158;8.642;2023-10-13T17:45:18;22.40;64.50
16404;DHT22;8311;50.158;8.642;2023-10-13T17:48:11;22.40;64.50
16404;DHT22;8311;50.158;8.642;2023-10-13T17:51:04;22.30;64.40
16404;DHT22;8311;50.158;8.642;2023-10-13T17:53:59;22.30;64.40
16404;DHT22;8311;50.158;8.642;2023-10-13T17:56:52;22.30;64.40
16404;DHT22;8311;50.158;8.642;2023-10-13T17:59:45;22.40;64.50
16404;DHT22;8311;50.158;8.642;2023-10-13T18:02:38;22.30;64.40
16404;DHT22;8311;50.158;8.642;2023-10-13T18:05:34;22.30;64.40
16404;DHT22;8311;50.158;8.642;2023-10-13T18:08:28;22.30;64.40
16404;DHT22;8311;50.158;8.642;2023-10-13T18:11:22;22.30;64.50
16404;DHT22;8311;50.158;8.642;2023-10-13T18:14:16;22.30;64.40
16404;DHT22;8311;50.158;8.642;2023-10-13T18:17:11;22.30;64.50
16404;DHT22;8311;50.158;8.642;2023-10-13T18:20:08;22.30;64.50
16404;DHT22;8311;50.158;8.642;2023-10-13T18:23:07;22.30;64.50
16404;DHT22;8311;50.158;8.642;2023-10-13T18:26:03;22.30;64.50
16404;DHT22;8311;50.158;8.642;2023-10-13T18:28:58;22.30;64.50
16404;DHT22;8311;50.158;8.642;2023-10-13T18:31:52;22.30;64.50
16404;DHT22;8311;50.158;8.642;2023-10-13T18:34:47;22.30;64.50
16404;DHT22;8311;50.158;8.642;2023-10-13T18:37:40;22.30;64.60
16404;DHT22;8311;50.158;8.642;2023-10-13T18:40:34;22.30;64.50
16404;DHT22;8311;50.158;8.642;2023-10-13T18:43:28;22.30;64.50
16404;DHT22;8311;50.158;8.642;2023-10-13T18:46:23;22.30;64.50
16404;DHT22;8311;50.158;8.642;2023-10-13T18:49:17;22.30;64.50
16404;DHT22;8311;50.158;8.642;2023-10-13T18:52:14;22.30;64.50
16404;DHT22;8311;50.158;8.642;2023-10-13T18:55:08;22.30;64.60
16404;DHT22;8311;50.158;8.642;2023-10-13T18:58:05;22.30;64.60
16404;DHT22;8311;50.158;8.642;2023-10-13T19:01:08;22.20;64.50
16404;DHT22;8311;50.158;8.642;2023-10-13T19:04:05;22.30;64.60
16404;DHT22;8311;50.158;8.642;2023-10-13T19:07:04;22.20;64.50
16404;DHT22;8311;50.158;8.642;2023-10-13T19:09:57;22.20;64.50